Ashland, OH

10:52 PM EDT on October 18, 2019 (GMT -0400)
Ashland near Sandusky Hollow | | Change Station
Active Advisory: Frost Advisory

Elev 1120 ft 40.88 °N, 82.33 °W | Updated 39 seconds ago

Clear
Clear
39.2 °F
Feels Like 39 °F
N
0
Wind Variable Wind from SSW
Gusts 0.0 mph

Today
High -- | Low -- °F
--% Chance of Precip.
Yesterday
High -- | Low -- °F
Precip. -- in
Pressure 30.06 in
Visibility 10.0 miles
Clouds Clear
Windchill 39 °F
Dew Point 39 °F
Humidity 99%
Rainfall 0.00 in
Snow Depth Not available.
7:43 AM 6:44 PM
Waning Gibbous, 75% visible
METAR KMFD 190152Z 00000KT 10SM CLR 06/03 A3004 RMK AO2 SLP177 T00610033
Pressure 30.06 in
Visibility 10.0 miles
Clouds Clear
Windchill 39 °F
Dew Point 39 °F
Humidity 99%
Rainfall 0.00 in
Snow Depth Not available.
7:43 AM 6:44 PM
Waning Gibbous, 75% visible
METAR KMFD 190152Z 00000KT 10SM CLR 06/03 A3004 RMK AO2 SLP177 T00610033

Get Your Daily Forecast Email!

Thanks for signing up!

Be on the lookout for a verification email in your inbox.

You'll start receiving severe weather alerts in your inbox..

×

10-Day Weather Forecast

Almanac

Astronomy

Oct. 18, 2019 Rise Set
Actual Time
Civil Twilight
Nautical Twilight
Astronomical Twilight
Moon
Length of Visible Light
Length of Day
Tomorrow will be .
, % of the Moon is Illuminated

Today's Extremes

State Highs State Lows

Community

WunderPhotos

Category 6

Welcome to Category 6. This is the collective home for Weather Underground's featured writeups by Dr. Jeff Masters (right), Bob Henson (left), Chris Burt, and other regular contributors.

Nearby

Air Quality

  Air Quality AQ Index Pollutant
Not available.

Snow Depth

Station Depth Elevation

Earthquake Activity

City Distance Mag. Time & Date
Minimum magnitude displayed is 2.5.

Coastal Water Temperatures

Place Temperature

Stations

Nearby Weather Stations

Station Location Temp. Windchill Dew Point Humidity Wind Precip. Elev Updated Type
                   

Watches & Warnings

Frost Advisory
Issued: 9:41 PM EDT Oct. 18, 2019 – National Weather Service

... Frost advisory remains in effect from 2 am to 9 am EDT
Saturday...

* what... temperatures as low as 33 to 36 degrees will result in
frost formation.

* Where... portions of northwest Pennsylvania and north Central,
Northeast and Northwest Ohio.

* When... from 2 am to 9 am EDT Saturday.

* Impacts... frost could kill sensitive outdoor vegetation if
left uncovered.

Precautionary/preparedness actions...

Take steps now to protect tender plants from the cold.



For more information from the National Weather Service visit
http://www.Weather.Gov/cle